createdAt,value
2023-04-09T00:00:18.128Z,16.63
2023-04-09T00:02:45.375Z,16.75
2023-04-09T00:05:12.642Z,16.73
2023-04-09T00:07:39.641Z,15.48
2023-04-09T00:10:07.486Z,16.08
2023-04-09T00:12:34.490Z,16.10
2023-04-09T00:15:01.542Z,15.18
2023-04-09T00:17:28.676Z,18.13
2023-04-09T00:19:56.297Z,16.73
2023-04-09T00:22:23.386Z,16.63
2023-04-09T00:24:50.491Z,15.90
2023-04-09T00:27:17.598Z,16.48
2023-04-09T00:29:44.619Z,17.13
2023-04-09T00:32:11.601Z,15.60
2023-04-09T00:34:38.922Z,15.20
2023-04-09T00:37:06.088Z,16.77
2023-04-09T00:39:33.045Z,18.08
2023-04-09T00:42:03.015Z,16.77
2023-04-09T00:44:30.480Z,17.70
2023-04-09T00:47:00.723Z,17.27
2023-04-09T00:49:27.959Z,18.25
2023-04-09T00:51:55.266Z,17.70
2023-04-09T00:54:22.350Z,17.45
2023-04-09T00:56:49.327Z,17.52
2023-04-09T00:59:16.638Z,19.63
2023-04-09T01:01:43.618Z,19.27
2023-04-09T01:04:10.999Z,19.52
2023-04-09T01:06:43.082Z,20.20
2023-04-09T01:09:39.363Z,20.23
2023-04-09T01:12:16.289Z,19.48
2023-04-09T01:15:03.525Z,18.38
2023-04-09T01:17:44.495Z,17.58
2023-04-09T01:20:29.268Z,18.15
2023-04-09T01:23:18.027Z,18.90
2023-04-09T01:25:46.205Z,18.38
2023-04-09T01:28:19.031Z,18.52
2023-04-09T01:30:50.451Z,18.90
2023-04-09T01:33:19.700Z,18.42
2023-04-09T01:35:49.369Z,19.15
2023-04-09T01:38:19.243Z,19.45
2023-04-09T01:40:46.880Z,20.75
2023-04-09T01:43:15.438Z,19.77
2023-04-09T01:45:44.451Z,18.25
2023-04-09T01:48:13.691Z,19.70
2023-04-09T01:50:41.131Z,18.20
2023-04-09T01:53:08.445Z,19.45
2023-04-09T01:55:35.500Z,19.25
2023-04-09T01:58:02.539Z,18.00
2023-04-09T02:00:42.671Z,19.02
2023-04-09T02:03:25.056Z,19.83
2023-04-09T02:06:04.702Z,20.60
2023-04-09T02:08:34.521Z,18.00
2023-04-09T02:11:05.557Z,18.10
2023-04-09T02:13:34.760Z,19.23
2023-04-09T02:16:02.995Z,20.40
2023-04-09T02:18:31.341Z,19.55
2023-04-09T02:20:59.685Z,18.48
2023-04-09T02:23:27.622Z,17.30
2023-04-09T02:25:54.858Z,18.60
2023-04-09T02:28:21.976Z,19.60
2023-04-09T02:30:48.877Z,21.00
2023-04-09T02:33:16.168Z,20.63
2023-04-09T02:35:43.153Z,19.13
2023-04-09T02:38:14.625Z,19.83
2023-04-09T02:40:42.115Z,18.63
2023-04-09T02:43:10.333Z,21.20
2023-04-09T02:45:37.598Z,21.33
2023-04-09T02:48:05.390Z,21.00
2023-04-09T02:50:32.496Z,21.08
2023-04-09T02:52:59.548Z,22.98
2023-04-09T02:55:27.548Z,22.42
2023-04-09T02:57:54.866Z,24.10
2023-04-09T03:00:21.868Z,23.60
2023-04-09T03:02:48.991Z,23.33
2023-04-09T03:05:15.990Z,25.92
2023-04-09T03:07:43.018Z,26.40
2023-04-09T03:10:10.418Z,25.02
2023-04-09T03:12:37.288Z,25.85
2023-04-09T03:15:04.761Z,23.65
2023-04-09T03:17:32.140Z,22.83
2023-04-09T03:19:59.392Z,21.52
2023-04-09T03:22:26.253Z,23.65
2023-04-09T03:24:53.218Z,23.02
2023-04-09T03:27:20.342Z,23.95
2023-04-09T03:29:47.411Z,22.52
2023-04-09T03:32:14.353Z,22.58
2023-04-09T03:34:41.248Z,23.95
2023-04-09T03:37:08.350Z,27.77
2023-04-09T03:39:35.447Z,25.17
2023-04-09T03:42:02.497Z,25.48
2023-04-09T03:44:29.413Z,24.38
2023-04-09T03:46:56.419Z,26.35
2023-04-09T03:49:23.380Z,24.25
2023-04-09T03:51:50.538Z,23.00
2023-04-09T03:54:17.537Z,23.02
2023-04-09T03:56:44.471Z,23.08
2023-04-09T03:59:11.532Z,23.00
2023-04-09T04:01:38.553Z,23.63
2023-04-09T04:04:05.960Z,27.65
2023-04-09T04:06:36.088Z,26.88
2023-04-09T04:09:03.084Z,27.95
2023-04-09T04:11:30.390Z,26.95
2023-04-09T04:13:57.553Z,25.88
2023-04-09T04:16:24.796Z,26.77
2023-04-09T04:18:52.080Z,27.05
2023-04-09T04:21:19.350Z,30.60
2023-04-09T04:23:46.327Z,30.20
2023-04-09T04:26:13.297Z,29.73
2023-04-09T04:28:40.818Z,32.20
2023-04-09T04:31:12.668Z,31.30
2023-04-09T04:33:41.040Z,29.58
2023-04-09T04:36:14.533Z,30.35
2023-04-09T04:38:41.910Z,31.85
2023-04-09T04:41:10.471Z,30.92
2023-04-09T04:43:37.514Z,30.35
2023-04-09T04:46:04.531Z,30.42
2023-04-09T04:48:32.123Z,31.52
2023-04-09T04:51:01.140Z,34.30
2023-04-09T04:53:28.932Z,30.90
2023-04-09T04:55:55.869Z,30.40
2023-04-09T04:58:23.069Z,31.13
2023-04-09T05:00:50.056Z,32.65
2023-04-09T05:03:17.541Z,30.92
2023-04-09T05:05:46.037Z,31.58
2023-04-09T05:08:13.297Z,33.08
2023-04-09T05:10:43.996Z,33.40
2023-04-09T05:13:10.995Z,35.05
2023-04-09T05:15:40.748Z,31.17
2023-04-09T05:18:08.413Z,37.45
2023-04-09T05:20:35.851Z,34.05
2023-04-09T05:23:02.916Z,35.65
2023-04-09T05:25:30.076Z,36.78
2023-04-09T05:27:57.579Z,39.10
2023-04-09T05:30:24.673Z,34.10
2023-04-09T05:32:51.772Z,35.05
2023-04-09T05:35:18.992Z,39.15
2023-04-09T05:37:45.905Z,33.05
2023-04-09T05:40:13.372Z,34.35
2023-04-09T05:42:40.380Z,38.47
2023-04-09T05:45:07.990Z,37.55
2023-04-09T05:47:35.621Z,44.72
2023-04-09T05:50:03.329Z,39.22
2023-04-09T05:52:30.214Z,45.45
2023-04-09T05:54:57.253Z,42.17
2023-04-09T05:57:24.614Z,42.25
2023-04-09T05:59:51.646Z,45.25
2023-04-09T06:02:18.806Z,47.85
2023-04-09T06:04:46.053Z,45.13
2023-04-09T06:07:13.006Z,45.83
2023-04-09T06:09:39.972Z,45.08
2023-04-09T06:12:06.923Z,50.50
2023-04-09T06:14:33.813Z,42.85
2023-04-09T06:17:00.786Z,46.75
2023-04-09T06:19:27.795Z,44.17
2023-04-09T06:21:54.721Z,45.53
2023-04-09T06:24:21.724Z,46.42
2023-04-09T06:26:49.112Z,44.15
2023-04-09T06:29:16.211Z,44.72
2023-04-09T06:31:43.326Z,44.90
2023-04-09T06:34:11.250Z,48.95
2023-04-09T06:36:40.331Z,49.80
2023-04-09T06:39:07.543Z,51.67
2023-04-09T06:41:34.580Z,52.47
2023-04-09T06:44:01.724Z,52.08
2023-04-09T06:46:29.032Z,50.83
2023-04-09T06:48:56.186Z,49.15
2023-04-09T06:51:23.140Z,48.50
2023-04-09T06:53:50.294Z,51.42
2023-04-09T06:56:20.405Z,50.20
2023-04-09T06:58:47.459Z,49.92
2023-04-09T07:01:17.265Z,49.25
2023-04-09T07:03:45.049Z,47.30
2023-04-09T07:06:12.154Z,47.22
2023-04-09T07:08:39.044Z,48.38
2023-04-09T07:11:05.970Z,45.40
2023-04-09T07:13:33.305Z,48.35
2023-04-09T07:16:00.544Z,45.53
2023-04-09T07:18:27.449Z,46.80
2023-04-09T07:20:55.279Z,43.88
2023-04-09T07:23:22.938Z,48.30
2023-04-09T07:25:49.856Z,43.97
2023-04-09T07:28:16.710Z,45.88
2023-04-09T07:30:43.620Z,49.08
2023-04-09T07:33:10.587Z,45.10
2023-04-09T07:35:37.498Z,45.80
2023-04-09T07:38:04.514Z,43.53
2023-04-09T07:40:31.463Z,49.33
2023-04-09T07:42:58.361Z,42.38
2023-04-09T07:45:25.731Z,47.75
2023-04-09T07:47:52.850Z,43.40
2023-04-09T07:50:19.769Z,42.13
2023-04-09T07:52:47.337Z,43.85
2023-04-09T07:55:15.125Z,41.60
2023-04-09T07:57:43.650Z,43.60
2023-04-09T08:00:11.289Z,45.95
2023-04-09T08:02:38.419Z,43.25
2023-04-09T08:05:06.453Z,46.92
2023-04-09T08:07:33.772Z,41.53
2023-04-09T08:10:00.940Z,44.13
2023-04-09T08:12:27.794Z,42.10
2023-04-09T08:14:54.732Z,41.97
2023-04-09T08:17:22.370Z,43.25
2023-04-09T08:19:49.962Z,43.90
2023-04-09T08:22:16.776Z,42.28
2023-04-09T08:24:43.922Z,38.78
2023-04-09T08:27:11.130Z,43.03
2023-04-09T08:29:40.525Z,37.92
2023-04-09T08:32:08.141Z,41.15
2023-04-09T08:34:35.103Z,46.08
2023-04-09T08:37:02.497Z,40.92
2023-04-09T08:39:29.393Z,42.55
2023-04-09T08:42:01.773Z,38.17
2023-04-09T08:44:29.676Z,36.97
2023-04-09T08:46:58.487Z,34.08
2023-04-09T08:49:26.562Z,36.03
2023-04-09T08:51:53.440Z,36.28
2023-04-09T08:54:20.394Z,36.80
2023-04-09T08:56:47.835Z,37.03
2023-04-09T08:59:18.651Z,34.22
2023-04-09T09:01:47.923Z,31.50
2023-04-09T09:04:15.465Z,32.90
2023-04-09T09:06:42.438Z,32.30
2023-04-09T09:09:13.153Z,32.92
2023-04-09T09:11:48.597Z,32.25
2023-04-09T09:14:17.857Z,33.00
2023-04-09T09:17:04.983Z,32.67
2023-04-09T09:19:33.649Z,31.15
2023-04-09T09:22:00.525Z,30.70
2023-04-09T09:24:27.746Z,28.80
2023-04-09T09:26:55.816Z,30.48
2023-04-09T09:29:22.708Z,34.17
2023-04-09T09:31:51.692Z,31.73
2023-04-09T09:34:20.387Z,31.88
2023-04-09T09:36:48.077Z,30.50
2023-04-09T09:39:17.414Z,30.17
2023-04-09T09:41:45.985Z,28.92
2023-04-09T09:44:30.096Z,28.30
2023-04-09T09:46:57.575Z,29.55
2023-04-09T09:49:24.427Z,25.80
2023-04-09T09:51:53.354Z,29.10
2023-04-09T09:54:25.179Z,25.42
2023-04-09T09:56:55.760Z,27.38
2023-04-09T09:59:32.370Z,26.23
2023-04-09T10:02:07.511Z,24.77
2023-04-09T10:04:36.107Z,24.70
2023-04-09T10:07:05.933Z,24.70
2023-04-09T10:09:46.993Z,35.17
2023-04-09T10:12:14.132Z,28.38
2023-04-09T10:14:42.689Z,25.58
2023-04-09T10:17:09.692Z,22.80
2023-04-09T10:19:42.676Z,24.27
2023-04-09T10:22:13.928Z,25.95
2023-04-09T10:24:41.615Z,25.13
2023-04-09T10:27:17.229Z,24.65
2023-04-09T10:29:49.406Z,24.65
2023-04-09T10:32:21.792Z,23.73
2023-04-09T10:34:50.625Z,22.75
2023-04-09T10:37:22.750Z,23.75
2023-04-09T10:39:53.477Z,23.75
2023-04-09T10:42:29.367Z,23.52
2023-04-09T10:45:16.723Z,24.48
2023-04-09T10:47:46.181Z,25.27
2023-04-09T10:50:28.043Z,25.33
2023-04-09T10:52:57.490Z,22.70
2023-04-09T10:55:50.024Z,23.42
2023-04-09T10:58:17.293Z,24.67
2023-04-09T11:00:46.500Z,24.15
2023-04-09T11:03:32.691Z,25.33
2023-04-09T11:06:06.187Z,22.92
2023-04-09T11:08:34.110Z,22.10
2023-04-09T11:11:02.098Z,22.23
2023-04-09T11:13:30.748Z,22.90
2023-04-09T11:16:00.133Z,20.20
2023-04-09T11:18:29.221Z,17.65
2023-04-09T11:21:00.464Z,18.52
2023-04-09T11:23:28.258Z,22.55
2023-04-09T11:25:56.514Z,22.48
2023-04-09T11:28:24.247Z,20.83
2023-04-09T11:30:51.974Z,21.73
2023-04-09T11:33:20.194Z,20.45
2023-04-09T11:35:47.699Z,19.67
2023-04-09T11:38:14.543Z,20.63
2023-04-09T11:40:48.222Z,20.40
2023-04-09T11:43:16.685Z,21.52
2023-04-09T11:45:44.332Z,17.92
2023-04-09T11:48:12.206Z,19.05
2023-04-09T11:50:39.345Z,19.77
2023-04-09T11:53:19.326Z,18.02
2023-04-09T11:55:51.537Z,19.92
2023-04-09T11:58:18.840Z,17.83
2023-04-09T12:00:46.109Z,19.15
2023-04-09T12:03:13.747Z,19.80
2023-04-09T12:05:49.301Z,17.25
2023-04-09T12:08:23.649Z,18.65
2023-04-09T12:10:53.396Z,16.92
2023-04-09T12:13:21.349Z,18.55
2023-04-09T12:15:50.066Z,17.30
2023-04-09T12:18:17.095Z,18.35
2023-04-09T12:20:46.643Z,18.48
2023-04-09T12:23:14.399Z,15.20
2023-04-09T12:25:43.100Z,17.30
2023-04-09T12:28:13.759Z,15.35
2023-04-09T12:30:40.704Z,16.58
2023-04-09T12:33:10.263Z,16.45
2023-04-09T12:35:38.538Z,15.32
2023-04-09T12:38:06.164Z,16.90
2023-04-09T12:40:33.525Z,14.18
2023-04-09T12:43:00.562Z,14.75
2023-04-09T12:45:28.146Z,14.32
2023-04-09T12:47:55.311Z,14.07
2023-04-09T12:50:22.525Z,13.15
2023-04-09T12:52:49.947Z,12.48
2023-04-09T12:55:16.927Z,10.65
2023-04-09T12:57:47.041Z,11.68
2023-04-09T13:00:15.018Z,13.50
2023-04-09T13:02:42.366Z,11.27
2023-04-09T13:05:09.611Z,11.40
2023-04-09T13:07:36.590Z,12.85
2023-04-09T13:10:03.677Z,11.60
2023-04-09T13:12:30.596Z,11.48
2023-04-09T13:14:59.149Z,12.57
2023-04-09T13:17:26.313Z,10.98
2023-04-09T13:19:53.654Z,10.23
2023-04-09T13:22:20.627Z,9.68
2023-04-09T13:24:47.543Z,9.23
2023-04-09T13:27:14.939Z,9.43
2023-04-09T13:29:41.836Z,9.70
2023-04-09T13:32:10.789Z,10.70
2023-04-09T13:34:39.290Z,10.95
2023-04-09T13:37:06.685Z,11.48
2023-04-09T13:39:33.631Z,12.65
2023-04-09T13:42:07.366Z,10.98
2023-04-09T13:44:37.031Z,10.40
2023-04-09T13:47:03.897Z,12.52
2023-04-09T13:49:31.025Z,10.88
2023-04-09T13:51:58.300Z,12.38
2023-04-09T13:54:25.380Z,11.07
2023-04-09T13:56:52.220Z,11.68
2023-04-09T13:59:19.228Z,11.27
2023-04-09T14:01:46.162Z,11.23
2023-04-09T14:04:13.180Z,11.25
2023-04-09T14:06:40.390Z,11.35
2023-04-09T14:09:07.252Z,10.98
2023-04-09T14:11:34.142Z,10.45
2023-04-09T14:14:01.148Z,9.38
2023-04-09T14:16:30.786Z,10.63
2023-04-09T14:18:58.087Z,10.10
2023-04-09T14:21:26.579Z,10.18
2023-04-09T14:23:53.579Z,10.23
2023-04-09T14:26:22.147Z,10.27
2023-04-09T14:28:51.924Z,8.82
2023-04-09T14:31:21.460Z,8.73
2023-04-09T14:33:49.073Z,10.65
2023-04-09T14:36:16.798Z,8.43
2023-04-09T14:38:43.675Z,7.85
2023-04-09T14:41:10.580Z,8.60
2023-04-09T14:43:37.498Z,7.88
2023-04-09T14:46:06.430Z,7.75
2023-04-09T14:48:33.421Z,8.63
2023-04-09T14:51:00.313Z,8.88
2023-04-09T14:53:27.375Z,7.00
2023-04-09T14:55:54.289Z,7.07
2023-04-09T14:58:21.530Z,6.65
2023-04-09T15:00:48.929Z,6.68
2023-04-09T15:03:16.119Z,7.63
2023-04-09T15:05:43.097Z,7.00
2023-04-09T15:08:10.168Z,6.45
2023-04-09T15:10:37.393Z,7.03
2023-04-09T15:13:04.337Z,5.97
2023-04-09T15:15:31.296Z,5.80
2023-04-09T15:17:58.273Z,5.75
2023-04-09T15:20:25.456Z,6.30
2023-04-09T15:22:52.314Z,6.55
2023-04-09T15:25:19.283Z,6.93
2023-04-09T15:27:46.887Z,5.80
2023-04-09T15:30:13.796Z,10.00
2023-04-09T15:32:40.808Z,5.57
2023-04-09T15:35:08.392Z,5.72
2023-04-09T15:37:35.444Z,5.80
2023-04-09T15:40:04.065Z,5.70
2023-04-09T15:42:31.020Z,5.78
2023-04-09T15:44:57.899Z,5.30
2023-04-09T15:47:24.960Z,6.50
2023-04-09T15:49:51.953Z,5.78
2023-04-09T15:52:18.904Z,5.18
2023-04-09T15:54:45.914Z,6.05
2023-04-09T15:57:14.398Z,5.60
2023-04-09T15:59:41.340Z,5.57
2023-04-09T16:02:08.283Z,5.72
2023-04-09T16:04:35.359Z,5.70
2023-04-09T16:07:04.133Z,5.63
2023-04-09T16:09:31.097Z,5.53
2023-04-09T16:11:58.039Z,5.65
2023-04-09T16:14:24.985Z,5.57
2023-04-09T16:16:52.272Z,5.25
2023-04-09T16:19:19.261Z,5.32
2023-04-09T16:21:46.337Z,5.55
2023-04-09T16:24:13.870Z,4.80
2023-04-09T16:26:42.193Z,5.25
2023-04-09T16:29:09.321Z,5.25
2023-04-09T16:31:42.246Z,5.03
2023-04-09T16:34:09.369Z,4.63
2023-04-09T16:36:41.137Z,5.50
2023-04-09T16:39:08.040Z,5.72
2023-04-09T16:41:36.976Z,5.60
2023-04-09T16:44:04.121Z,4.93
2023-04-09T16:46:31.300Z,5.40
2023-04-09T16:48:58.196Z,4.90
2023-04-09T16:51:25.066Z,4.93
2023-04-09T16:53:51.930Z,4.78
2023-04-09T16:56:18.845Z,5.32
2023-04-09T16:58:46.664Z,5.28
2023-04-09T17:01:13.604Z,5.28
2023-04-09T17:03:40.821Z,5.18
2023-04-09T17:06:07.935Z,4.82
2023-04-09T17:08:35.758Z,4.60
2023-04-09T17:11:03.011Z,4.85
2023-04-09T17:13:35.229Z,4.88
2023-04-09T17:16:02.962Z,5.30
2023-04-09T17:18:30.188Z,6.20
2023-04-09T17:20:57.178Z,5.40
2023-04-09T17:23:24.063Z,7.75
2023-04-09T17:25:50.981Z,5.25
2023-04-09T17:28:19.005Z,5.22
2023-04-09T17:30:47.369Z,6.78
2023-04-09T17:33:14.662Z,5.90
2023-04-09T17:35:43.044Z,5.07
2023-04-09T17:38:10.009Z,5.60
2023-04-09T17:40:36.890Z,6.35
2023-04-09T17:43:04.015Z,5.05
2023-04-09T17:45:30.997Z,5.07
2023-04-09T17:47:57.907Z,6.95
2023-04-09T17:50:25.091Z,6.07
2023-04-09T17:52:52.192Z,6.63
2023-04-09T17:55:19.440Z,5.47
2023-04-09T17:57:46.346Z,5.55
2023-04-09T18:00:13.861Z,4.72
2023-04-09T18:02:41.074Z,5.43
2023-04-09T18:05:08.558Z,6.07
2023-04-09T18:07:35.923Z,5.88
2023-04-09T18:10:03.862Z,5.43
2023-04-09T18:12:30.776Z,5.72
2023-04-09T18:14:57.790Z,5.28
2023-04-09T18:17:26.340Z,5.78
2023-04-09T18:19:58.547Z,5.80
2023-04-09T18:22:27.421Z,6.57
2023-04-09T18:24:54.630Z,5.68
2023-04-09T18:27:21.793Z,5.85
2023-04-09T18:29:52.244Z,5.40
2023-04-09T18:32:19.877Z,5.93
2023-04-09T18:34:47.848Z,6.07
2023-04-09T18:37:19.258Z,5.97
2023-04-09T18:39:46.853Z,6.82
2023-04-09T18:42:14.423Z,5.47
2023-04-09T18:44:41.447Z,6.15
2023-04-09T18:47:09.507Z,6.28
2023-04-09T18:49:36.950Z,5.88
2023-04-09T18:52:09.283Z,6.68
2023-04-09T18:54:37.100Z,6.20
2023-04-09T18:57:04.255Z,6.30
2023-04-09T18:59:35.245Z,7.30
2023-04-09T19:02:05.119Z,6.80
2023-04-09T19:04:36.290Z,9.32
2023-04-09T19:07:03.767Z,7.45
2023-04-09T19:09:31.731Z,9.55
2023-04-09T19:11:58.780Z,7.80
2023-04-09T19:14:26.220Z,6.53
2023-04-09T19:16:53.566Z,7.10
2023-04-09T19:19:20.610Z,6.45
2023-04-09T19:21:47.667Z,7.25
2023-04-09T19:24:14.590Z,6.63
2023-04-09T19:26:41.773Z,7.07
2023-04-09T19:29:09.247Z,7.45
2023-04-09T19:31:36.183Z,6.43
2023-04-09T19:34:03.163Z,7.07
2023-04-09T19:36:32.033Z,7.00
2023-04-09T19:38:59.788Z,8.23
2023-04-09T19:41:26.595Z,7.20
2023-04-09T19:43:53.479Z,7.00
2023-04-09T19:46:20.901Z,6.50
2023-04-09T19:48:47.941Z,8.52
2023-04-09T19:51:18.643Z,8.07
2023-04-09T19:53:49.350Z,8.18
2023-04-09T19:56:16.422Z,7.85
2023-04-09T19:58:43.925Z,7.80
2023-04-09T20:01:11.074Z,7.55
2023-04-09T20:03:38.174Z,7.68
2023-04-09T20:06:09.969Z,8.00
2023-04-09T20:08:38.065Z,8.45
2023-04-09T20:11:05.632Z,9.15
2023-04-09T20:13:33.532Z,8.27
2023-04-09T20:16:00.932Z,8.77
2023-04-09T20:18:28.671Z,9.35
2023-04-09T20:20:55.629Z,9.68
2023-04-09T20:23:22.405Z,9.48
2023-04-09T20:25:55.603Z,10.73
2023-04-09T20:28:23.040Z,10.15
2023-04-09T20:30:50.558Z,9.82
2023-04-09T20:33:20.790Z,10.48
2023-04-09T20:35:48.219Z,9.52
2023-04-09T20:38:15.569Z,10.00
2023-04-09T20:40:42.579Z,11.25
2023-04-09T20:43:09.688Z,9.98
2023-04-09T20:45:36.530Z,9.45
2023-04-09T20:48:03.707Z,9.00
2023-04-09T20:50:31.155Z,9.85
2023-04-09T20:52:59.173Z,10.15
2023-04-09T20:55:26.552Z,9.98
2023-04-09T20:57:56.280Z,9.30
2023-04-09T21:00:23.459Z,10.98
2023-04-09T21:02:51.634Z,10.45
2023-04-09T21:05:23.264Z,9.88
2023-04-09T21:07:51.887Z,10.73
2023-04-09T21:10:18.888Z,10.70
2023-04-09T21:12:45.761Z,9.88
2023-04-09T21:15:12.824Z,10.35
2023-04-09T21:17:39.661Z,11.23
2023-04-09T21:20:07.144Z,10.48
2023-04-09T21:22:34.873Z,11.55
2023-04-09T21:25:03.284Z,10.35
2023-04-09T21:27:30.390Z,10.23
2023-04-09T21:29:57.634Z,10.60
2023-04-09T21:32:25.271Z,10.40
2023-04-09T21:34:52.435Z,10.98
2023-04-09T21:37:19.329Z,11.10
2023-04-09T21:39:48.181Z,9.38
2023-04-09T21:42:15.055Z,9.65
2023-04-09T21:44:41.970Z,9.90
2023-04-09T21:47:09.409Z,9.60
2023-04-09T21:49:39.339Z,10.45
2023-04-09T21:52:13.844Z,10.60
2023-04-09T21:54:42.170Z,9.38
2023-04-09T21:57:09.376Z,9.07
2023-04-09T21:59:36.482Z,9.95
2023-04-09T22:02:06.851Z,10.02
2023-04-09T22:04:37.533Z,9.88
2023-04-09T22:07:04.751Z,10.65
2023-04-09T22:09:31.929Z,10.27
2023-04-09T22:11:59.704Z,9.70
2023-04-09T22:14:29.445Z,12.20
2023-04-09T22:16:58.035Z,10.80
2023-04-09T22:19:29.520Z,10.68
2023-04-09T22:21:56.385Z,11.13
2023-04-09T22:24:33.926Z,11.05
2023-04-09T22:27:01.677Z,10.20
2023-04-09T22:29:29.461Z,10.57
2023-04-09T22:31:56.523Z,10.48
2023-04-09T22:34:23.657Z,10.18
2023-04-09T22:36:50.873Z,9.25
2023-04-09T22:39:17.980Z,11.18
2023-04-09T22:41:44.920Z,9.52
2023-04-09T22:44:12.214Z,11.77
2023-04-09T22:46:39.175Z,10.88
2023-04-09T22:49:06.439Z,9.98
2023-04-09T22:51:36.406Z,9.05
2023-04-09T22:54:03.612Z,10.18
2023-04-09T22:56:31.864Z,10.77
2023-04-09T22:58:59.023Z,10.48
2023-04-09T23:01:26.920Z,10.40
2023-04-09T23:03:54.004Z,10.90
2023-04-09T23:06:22.327Z,9.02
2023-04-09T23:08:49.329Z,10.85
2023-04-09T23:11:16.399Z,10.02
2023-04-09T23:13:43.342Z,9.15
2023-04-09T23:16:10.716Z,11.70
2023-04-09T23:18:37.726Z,10.85
2023-04-09T23:21:08.866Z,10.25
2023-04-09T23:23:37.453Z,9.35
2023-04-09T23:26:04.998Z,10.10
2023-04-09T23:28:32.404Z,10.13
2023-04-09T23:30:59.398Z,10.98
2023-04-09T23:33:26.663Z,10.82
2023-04-09T23:35:54.084Z,10.88
2023-04-09T23:38:21.072Z,10.20
2023-04-09T23:40:48.893Z,11.60
2023-04-09T23:43:16.003Z,10.15
2023-04-09T23:45:44.015Z,11.13
2023-04-09T23:48:12.075Z,9.13
2023-04-09T23:50:39.908Z,9.60
2023-04-09T23:53:06.934Z,9.20
2023-04-09T23:55:38.034Z,9.57
2023-04-09T23:58:05.436Z,9.25
